PWSweather.com
Personal Weather Stations
Station Observations
KMNZUMBR2
Covered Bridge Park, Zumbrota, MN 55992

Covered Bridge ParkZumbrota, MN 55992

Lat: 44.302051, Lon: -92.674974

Elevation: 928

Station Type: Davis Vantage Pro 2 Plus

Latest ConditionsUpdated 10:50:02 PM CDT Tuesday, Aug 20, 2019
Currently Today's Max Today's Min Today's Average
Temperature 68.5°F20.3°C 81.0°F27.2°C 57.5°F14.2°C 68.2°F20.1°C
Dew Point 64.8°F18.2°C 76.8°F24.9°C 53.7°F12.1°C 63.5°F17.5°C
Winds Calm Calm 9.2 mph -14.8 kmh - - 0.6 mph 1.0 kmh
Wind Gusts -- 13.8 mph22.2 kmh - -
Humidity 88% 93% 65% 85%
Pressure 29.93 in1013.5 mb 30.01 in1016.3 mb 29.86 in1011.2 mb -
Precipitation - 0.19 in4.8 mm - -
Hour Temp Dew Point Humidity Winds Wind Gusts Pressure Precip Precip Rate Daily Precip Total
10:50 PM 68.5°F20.3°C 64.8°F18.2°C 88% Calm Calm -- 29.93 in1013.5 mb - 0.00 in0.0 mm 0.19 in4.8 mm
10:40 PM 68.6°F20.3°C 64.9°F18.3°C 88% Calm Calm -- 29.93 in1013.5 mb - 0.00 in0.0 mm 0.19 in4.8 mm
10:30 PM 68.9°F20.5°C 65.2°F18.4°C 88% Calm Calm -- 29.93 in1013.5 mb - 0.00 in0.0 mm 0.19 in4.8 mm
10:20 PM 69.2°F20.7°C 65.5°F18.6°C 88% Calm Calm -- 29.92 in1013.2 mb - 0.00 in0.0 mm 0.19 in4.8 mm
10:10 PM 69.5°F20.8°C 65.8°F18.8°C 88% Calm Calm -- 29.91 in1012.9 mb - 0.00 in0.0 mm 0.19 in4.8 mm
10:00 PM 69.7°F20.9°C 64.3°F17.9°C 83% Calm Calm -- 29.91 in1012.9 mb - 0.00 in0.0 mm 0.19 in4.8 mm
09:50 PM 69.8°F21.0°C 64.4°F18.0°C 83% Calm Calm -- 29.91 in1012.9 mb - 0.00 in0.0 mm 0.19 in4.8 mm
09:40 PM 70.1°F21.2°C 64.7°F18.2°C 83% Calm Calm -- 29.91 in1012.9 mb - 0.00 in0.0 mm 0.19 in4.8 mm
09:30 PM 70.3°F21.3°C 64.9°F18.3°C 83% Calm Calm -- 29.90 in1012.5 mb - 0.00 in0.0 mm 0.19 in4.8 mm
09:20 PM 70.4°F21.3°C 65.0°F18.3°C 83% Calm Calm -- 29.90 in1012.5 mb - 0.00 in0.0 mm 0.19 in4.8 mm
09:10 PM 70.8°F21.6°C 65.4°F18.6°C 83% Calm Calm -- 29.90 in1012.5 mb - 0.00 in0.0 mm 0.19 in4.8 mm
09:00 PM 71.2°F21.8°C 58.8°F14.9°C 65% Calm Calm -- 29.90 in1012.5 mb - 0.00 in0.0 mm 0.19 in4.8 mm
08:50 PM 71.6°F22.0°C 59.2°F15.1°C 65% Calm Calm -- 29.89 in1012.2 mb - 0.00 in0.0 mm 0.19 in4.8 mm
08:40 PM 71.9°F22.2°C 59.5°F15.3°C 65% Calm Calm -- 29.89 in1012.2 mb - 0.00 in0.0 mm 0.19 in4.8 mm
08:30 PM 72.4°F22.4°C 60.0°F15.6°C 65% Calm Calm -- 29.88 in1011.9 mb - 0.00 in0.0 mm 0.19 in4.8 mm
08:20 PM 72.7°F22.6°C 60.2°F15.7°C 65% Calm Calm -- 29.88 in1011.9 mb - 0.00 in0.0 mm 0.19 in4.8 mm
08:10 PM 73.0°F22.8°C 60.5°F15.8°C 65% Calm Calm -- 29.89 in1012.2 mb - 0.00 in0.0 mm 0.19 in4.8 mm
08:00 PM 73.5°F23.1°C 61.0°F16.1°C 65% Calm Calm -- 29.89 in1012.2 mb - 0.00 in0.0 mm 0.19 in4.8 mm
07:50 PM 74.0°F23.3°C 61.5°F16.4°C 65% Calm Calm -- 29.88 in1011.9 mb - 0.00 in0.0 mm 0.19 in4.8 mm
07:40 PM 75.0°F23.9°C 62.4°F16.9°C 65% Calm Calm -- 29.89 in1012.2 mb - 0.00 in0.0 mm 0.19 in4.8 mm
07:30 PM 74.8°F23.8°C 62.2°F16.8°C 65% Calm Calm -- 29.88 in1011.9 mb - 0.00 in0.0 mm 0.19 in4.8 mm
07:20 PM 74.8°F23.8°C 62.2°F16.8°C 65% Calm Calm -- 29.89 in1012.2 mb - 0.00 in0.0 mm 0.19 in4.8 mm
07:10 PM 75.3°F24.1°C 62.7°F17.1°C 65% Calm Calm -- 29.89 in1012.2 mb - 0.00 in0.0 mm 0.19 in4.8 mm
07:00 PM 76.4°F24.7°C 72.2°F22.3°C 87% 1.2 mph NNW1.9 kmh NNW -- 29.89 in1012.2 mb - 0.00 in0.0 mm 0.19 in4.8 mm
06:50 PM 76.7°F24.8°C 72.6°F22.6°C 87% Calm Calm -- 29.88 in1011.9 mb - 0.00 in0.0 mm 0.19 in4.8 mm
06:40 PM 76.3°F24.6°C 72.1°F22.3°C 87% Calm Calm -- 29.88 in1011.9 mb - 0.00 in0.0 mm 0.19 in4.8 mm
06:30 PM 76.6°F24.8°C 72.4°F22.4°C 87% Calm Calm -- 29.88 in1011.9 mb - 0.00 in0.0 mm 0.19 in4.8 mm
06:20 PM 77.6°F25.3°C 73.4°F23.0°C 87% Calm Calm -- 29.88 in1011.9 mb - 0.00 in0.0 mm 0.19 in4.8 mm
06:10 PM 78.4°F25.8°C 74.2°F23.4°C 87% Calm Calm -- 29.88 in1011.9 mb - 0.00 in0.0 mm 0.19 in4.8 mm
06:00 PM 78.5°F25.8°C 74.3°F23.5°C 87% Calm Calm -- 29.88 in1011.9 mb - 0.00 in0.0 mm 0.19 in4.8 mm
05:50 PM 79.2°F26.2°C 75.0°F23.9°C 87% 1.2 mph W1.9 kmh W 3.5 mph5.6 kmh 29.88 in1011.9 mb - 0.00 in0.0 mm 0.19 in4.8 mm
05:40 PM 80.0°F26.7°C 75.8°F24.3°C 87% Calm Calm 4.6 mph7.4 kmh 29.88 in1011.9 mb - 0.00 in0.0 mm 0.19 in4.8 mm
05:30 PM 80.2°F26.8°C 76.0°F24.4°C 87% Calm Calm 5.8 mph9.3 kmh 29.88 in1011.9 mb - 0.00 in0.0 mm 0.19 in4.8 mm
05:20 PM 81.0°F27.2°C 76.7°F24.8°C 87% 4.6 mph W7.4 kmh W 11.5 mph18.5 kmh 29.88 in1011.9 mb - 0.00 in0.0 mm 0.19 in4.8 mm
05:10 PM 81.0°F27.2°C 76.8°F24.9°C 87% 1.2 mph NW1.9 kmh NW 3.5 mph5.6 kmh 29.88 in1011.9 mb - 0.00 in0.0 mm 0.19 in4.8 mm
05:00 PM 80.8°F27.1°C 76.6°F24.8°C 87% Calm Calm 3.5 mph5.6 kmh 29.87 in1011.5 mb - 0.00 in0.0 mm 0.19 in4.8 mm
04:50 PM 80.7°F27.1°C 76.4°F24.7°C 87% 1.2 mph SW1.9 kmh SW 3.5 mph5.6 kmh 29.87 in1011.5 mb - 0.00 in0.0 mm 0.19 in4.8 mm
04:40 PM 80.9°F27.2°C 76.7°F24.8°C 87% 1.2 mph WSW1.9 kmh WSW 3.5 mph5.6 kmh 29.87 in1011.5 mb - 0.00 in0.0 mm 0.19 in4.8 mm
04:30 PM 80.9°F27.2°C 76.6°F24.8°C 87% 2.3 mph WNW3.7 kmh WNW 5.8 mph9.3 kmh 29.87 in1011.5 mb - 0.00 in0.0 mm 0.19 in4.8 mm
04:20 PM 80.8°F27.1°C 76.6°F24.8°C 87% 2.3 mph WSW3.7 kmh WSW 6.9 mph11.1 kmh 29.87 in1011.5 mb - 0.00 in0.0 mm 0.19 in4.8 mm
04:10 PM 80.7°F27.1°C 76.5°F24.7°C 87% 1.2 mph WNW1.9 kmh WNW -- 29.87 in1011.5 mb - 0.00 in0.0 mm 0.19 in4.8 mm
04:00 PM 80.7°F27.1°C 76.5°F24.7°C 87% 2.3 mph W3.7 kmh W 4.6 mph7.4 kmh 29.87 in1011.5 mb - 0.00 in0.0 mm 0.19 in4.8 mm
03:50 PM 80.2°F26.8°C 76.0°F24.4°C 87% Calm Calm -- 29.87 in1011.5 mb - 0.00 in0.0 mm 0.19 in4.8 mm
03:40 PM 80.0°F26.7°C 75.8°F24.3°C 87% 1.2 mph S1.9 kmh S 8.1 mph13.0 kmh 29.86 in1011.2 mb - 0.00 in0.0 mm 0.19 in4.8 mm
03:30 PM 79.3°F26.3°C 75.1°F23.9°C 87% 1.2 mph SW1.9 kmh SW 3.5 mph5.6 kmh 29.87 in1011.5 mb - 0.00 in0.0 mm 0.19 in4.8 mm
03:20 PM 79.1°F26.2°C 74.9°F23.8°C 87% Calm Calm 2.3 mph3.7 kmh 29.87 in1011.5 mb - 0.00 in0.0 mm 0.19 in4.8 mm
03:10 PM 78.3°F25.7°C 74.1°F23.4°C 87% Calm Calm 3.5 mph5.6 kmh 29.88 in1011.9 mb - 0.00 in0.0 mm 0.19 in4.8 mm
03:00 PM 77.4°F25.2°C 73.3°F22.9°C 87% 1.2 mph WSW1.9 kmh WSW 10.4 mph16.7 kmh 29.88 in1011.9 mb - 0.00 in0.0 mm 0.19 in4.8 mm
02:50 PM 77.1°F25.1°C 72.9°F22.7°C 87% 1.2 mph WNW1.9 kmh WNW 4.6 mph7.4 kmh 29.88 in1011.9 mb - 0.00 in0.0 mm 0.19 in4.8 mm
02:40 PM 76.2°F24.6°C 72.0°F22.2°C 87% 1.2 mph SSE1.9 kmh SSE 3.5 mph5.6 kmh 29.87 in1011.5 mb - 0.00 in0.0 mm 0.19 in4.8 mm
02:30 PM 75.7°F24.3°C 71.6°F22.0°C 87% Calm Calm -- 29.88 in1011.9 mb - 0.00 in0.0 mm 0.19 in4.8 mm
02:20 PM 74.8°F23.8°C 70.7°F21.5°C 87% Calm Calm 3.5 mph5.6 kmh 29.88 in1011.9 mb - 0.00 in0.0 mm 0.19 in4.8 mm
02:10 PM 74.8°F23.8°C 70.7°F21.5°C 87% 2.3 mph S3.7 kmh S 6.9 mph11.1 kmh 29.89 in1012.2 mb - 0.00 in0.0 mm 0.19 in4.8 mm
02:00 PM 73.9°F23.3°C 69.8°F21.0°C 87% Calm Calm 3.5 mph5.6 kmh 29.89 in1012.2 mb - 0.00 in0.0 mm 0.19 in4.8 mm
01:50 PM 73.2°F22.9°C 69.1°F20.6°C 87% 1.2 mph S1.9 kmh S -- 29.90 in1012.5 mb - 0.00 in0.0 mm 0.19 in4.8 mm
01:40 PM 71.8°F22.1°C 67.8°F19.9°C 87% 3.5 mph SE5.6 kmh SE 6.9 mph11.1 kmh 29.90 in1012.5 mb - 0.00 in0.0 mm 0.19 in4.8 mm
01:30 PM 70.4°F21.3°C 66.3°F19.1°C 87% 2.3 mph SE3.7 kmh SE 5.8 mph9.3 kmh 29.90 in1012.5 mb - 0.00 in0.0 mm 0.19 in4.8 mm
01:20 PM 69.2°F20.7°C 65.2°F18.4°C 87% Calm Calm -- 29.91 in1012.9 mb - 0.00 in0.0 mm 0.19 in4.8 mm
01:10 PM 67.1°F19.5°C 63.1°F17.3°C 87% Calm Calm -- 29.92 in1013.2 mb - 0.00 in0.0 mm 0.19 in4.8 mm
01:00 PM 66.2°F19.0°C 62.2°F16.8°C 87% Calm Calm -- 29.92 in1013.2 mb - 0.00 in0.0 mm 0.19 in4.8 mm
12:50 PM 66.3°F19.1°C 62.3°F16.8°C 87% 1.2 mph ESE1.9 kmh ESE 5.8 mph9.3 kmh 29.93 in1013.5 mb - 0.01 in0.3 mm 0.19 in4.8 mm
12:40 PM 66.4°F19.1°C 62.4°F16.9°C 87% Calm Calm 4.6 mph7.4 kmh 29.94 in1013.9 mb - 0.02 in0.5 mm 0.19 in4.8 mm
12:30 PM 66.5°F19.2°C 62.5°F16.9°C 87% Calm Calm -- 29.95 in1014.2 mb - 0.04 in1.0 mm 0.19 in4.8 mm
12:20 PM 66.7°F19.3°C 62.7°F17.1°C 87% 2.3 mph SE3.7 kmh SE -- 29.97 in1014.9 mb - 0.18 in4.6 mm 0.19 in4.8 mm
12:10 PM 67.2°F19.6°C 63.2°F17.3°C 87% Calm Calm 6.9 mph11.1 kmh 29.98 in1015.2 mb - 0.19 in4.8 mm 0.19 in4.8 mm
12:00 PM 67.4°F19.7°C 63.4°F17.4°C 87% 1.2 mph W1.9 kmh W -- 29.98 in1015.2 mb - 0.19 in4.8 mm 0.19 in4.8 mm
11:50 AM 68.1°F20.1°C 64.1°F17.8°C 87% 5.8 mph ESE9.3 kmh ESE 11.5 mph18.5 kmh 29.93 in1013.5 mb - 0.18 in4.6 mm 0.18 in4.6 mm
11:40 AM 69.1°F20.6°C 65.1°F18.4°C 87% 1.2 mph ENE1.9 kmh ENE 3.5 mph5.6 kmh 29.96 in1014.6 mb - 0.18 in4.6 mm 0.18 in4.6 mm
11:30 AM 70.3°F21.3°C 66.2°F19.0°C 87% 2.3 mph E3.7 kmh E 4.6 mph7.4 kmh 29.98 in1015.2 mb - 0.15 in3.8 mm 0.15 in3.8 mm
11:20 AM 72.2°F22.3°C 68.1°F20.1°C 87% 9.2 mph NNE14.8 kmh NNE 13.8 mph22.2 kmh 30.01 in1016.3 mb - 0.02 in0.5 mm 0.02 in0.5 mm
11:10 AM 74.1°F23.4°C 70.0°F21.1°C 87% 9.2 mph N14.8 kmh N 11.5 mph18.5 kmh 29.99 in1015.6 mb - 0.00 in0.0 mm 0.00 in0.0 mm
11:00 AM 75.5°F24.2°C 71.3°F21.8°C 87% 5.8 mph NNW9.3 kmh NNW 13.8 mph22.2 kmh 29.97 in1014.9 mb - 0.00 in0.0 mm 0.00 in0.0 mm
10:50 AM 76.0°F24.4°C 71.8°F22.1°C 87% Calm Calm -- 29.91 in1012.9 mb - 0.00 in0.0 mm 0.00 in0.0 mm
10:40 AM 75.5°F24.2°C 71.4°F21.9°C 87% 2.3 mph SE3.7 kmh SE 6.9 mph11.1 kmh 29.89 in1012.2 mb - 0.00 in0.0 mm 0.00 in0.0 mm
10:30 AM 75.2°F24.0°C 71.1°F21.7°C 87% Calm Calm 5.8 mph9.3 kmh 29.88 in1011.9 mb - 0.00 in0.0 mm 0.00 in0.0 mm
10:20 AM 73.4°F23.0°C 69.3°F20.7°C 87% 1.2 mph S1.9 kmh S 4.6 mph7.4 kmh 29.87 in1011.5 mb - 0.00 in0.0 mm 0.00 in0.0 mm
10:10 AM 72.4°F22.4°C 68.3°F20.2°C 87% 2.3 mph S3.7 kmh S 10.4 mph16.7 kmh 29.87 in1011.5 mb - 0.00 in0.0 mm 0.00 in0.0 mm
10:00 AM 71.7°F22.1°C 67.6°F19.8°C 87% 2.3 mph S3.7 kmh S 4.6 mph7.4 kmh 29.87 in1011.5 mb - 0.00 in0.0 mm 0.00 in0.0 mm
09:50 AM 70.9°F21.6°C 66.9°F19.4°C 87% Calm Calm -- 29.89 in1012.2 mb - 0.00 in0.0 mm 0.00 in0.0 mm
09:40 AM 70.9°F21.6°C 66.8°F19.3°C 87% Calm Calm 3.5 mph5.6 kmh 29.88 in1011.9 mb - 0.00 in0.0 mm 0.00 in0.0 mm
09:30 AM 69.7°F20.9°C 65.7°F18.7°C 87% Calm Calm 2.3 mph3.7 kmh 29.87 in1011.5 mb - 0.00 in0.0 mm 0.00 in0.0 mm
09:20 AM 68.3°F20.2°C 64.3°F17.9°C 87% 1.2 mph SSW1.9 kmh SSW -- 29.88 in1011.9 mb - 0.00 in0.0 mm 0.00 in0.0 mm
09:10 AM 67.7°F19.8°C 63.7°F17.6°C 87% Calm Calm -- 29.89 in1012.2 mb - 0.00 in0.0 mm 0.00 in0.0 mm
09:00 AM 66.8°F19.3°C 62.8°F17.1°C 87% Calm Calm -- 29.89 in1012.2 mb - 0.00 in0.0 mm 0.00 in0.0 mm
08:50 AM 66.0°F18.9°C 62.1°F16.7°C 87% Calm Calm -- 29.90 in1012.5 mb - 0.00 in0.0 mm 0.00 in0.0 mm
08:40 AM 65.5°F18.6°C 61.5°F16.4°C 87% Calm Calm -- 29.89 in1012.2 mb - 0.00 in0.0 mm 0.00 in0.0 mm
08:30 AM 64.6°F18.1°C 60.7°F15.9°C 87% Calm Calm -- 29.89 in1012.2 mb - 0.00 in0.0 mm 0.00 in0.0 mm
08:20 AM 64.0°F17.8°C 60.0°F15.6°C 87% Calm Calm 3.5 mph5.6 kmh 29.89 in1012.2 mb - 0.00 in0.0 mm 0.00 in0.0 mm
08:10 AM 63.3°F17.4°C 59.4°F15.2°C 87% Calm Calm 3.5 mph5.6 kmh 29.89 in1012.2 mb - 0.00 in0.0 mm 0.00 in0.0 mm
08:00 AM 62.4°F16.9°C 58.5°F14.7°C 87% Calm Calm -- 29.91 in1012.9 mb - 0.00 in0.0 mm 0.00 in0.0 mm
07:50 AM 61.7°F16.5°C 57.8°F14.3°C 87% Calm Calm 2.3 mph3.7 kmh 29.90 in1012.5 mb - 0.00 in0.0 mm 0.00 in0.0 mm
07:40 AM 61.2°F16.2°C 57.3°F14.1°C 87% Calm Calm -- 29.90 in1012.5 mb - 0.00 in0.0 mm 0.00 in0.0 mm
07:30 AM 60.6°F15.9°C 56.7°F13.7°C 87% Calm Calm -- 29.89 in1012.2 mb - 0.00 in0.0 mm 0.00 in0.0 mm
07:20 AM 60.0°F15.6°C 56.1°F13.4°C 87% Calm Calm -- 29.88 in1011.9 mb - 0.00 in0.0 mm 0.00 in0.0 mm
07:10 AM 59.8°F15.4°C 55.9°F13.3°C 87% Calm Calm -- 29.87 in1011.5 mb - 0.00 in0.0 mm 0.00 in0.0 mm
07:00 AM 59.6°F15.3°C 55.7°F13.2°C 87% Calm Calm -- 29.87 in1011.5 mb - 0.00 in0.0 mm 0.00 in0.0 mm
06:50 AM 59.5°F15.3°C 55.6°F13.1°C 87% Calm Calm -- 29.87 in1011.5 mb - 0.00 in0.0 mm 0.00 in0.0 mm
06:40 AM 59.5°F15.3°C 55.6°F13.1°C 87% Calm Calm -- 29.87 in1011.5 mb - 0.00 in0.0 mm 0.00 in0.0 mm
06:30 AM 59.4°F15.2°C 55.5°F13.1°C 87% Calm Calm -- 29.88 in1011.9 mb - 0.00 in0.0 mm 0.00 in0.0 mm
06:20 AM 59.3°F15.2°C 55.4°F13.0°C 87% Calm Calm -- 29.89 in1012.2 mb - 0.00 in0.0 mm 0.00 in0.0 mm
06:10 AM 59.2°F15.1°C 55.3°F12.9°C 87% Calm Calm -- 29.87 in1011.5 mb - 0.00 in0.0 mm 0.00 in0.0 mm
06:00 AM 59.0°F15.0°C 55.2°F12.9°C 87% Calm Calm -- 29.88 in1011.9 mb - 0.00 in0.0 mm 0.00 in0.0 mm
05:50 AM 59.0°F15.0°C 55.1°F12.8°C 87% Calm Calm -- 29.87 in1011.5 mb - 0.00 in0.0 mm 0.00 in0.0 mm
05:40 AM 58.9°F14.9°C 55.0°F12.8°C 87% Calm Calm -- 29.87 in1011.5 mb - 0.00 in0.0 mm 0.00 in0.0 mm
05:30 AM 58.9°F14.9°C 55.0°F12.8°C 87% Calm Calm -- 29.87 in1011.5 mb - 0.00 in0.0 mm 0.00 in0.0 mm
05:20 AM 58.8°F14.9°C 54.9°F12.7°C 87% Calm Calm -- 29.87 in1011.5 mb - 0.00 in0.0 mm 0.00 in0.0 mm
05:10 AM 58.8°F14.9°C 54.9°F12.7°C 87% Calm Calm -- 29.88 in1011.9 mb - 0.00 in0.0 mm 0.00 in0.0 mm
05:00 AM 58.8°F14.9°C 55.0°F12.8°C 87% Calm Calm -- 29.86 in1011.2 mb - 0.00 in0.0 mm 0.00 in0.0 mm
04:50 AM 58.9°F14.9°C 55.0°F12.8°C 87% Calm Calm -- 29.86 in1011.2 mb - 0.00 in0.0 mm 0.00 in0.0 mm
04:40 AM 58.9°F14.9°C 55.0°F12.8°C 87% Calm Calm -- 29.86 in1011.2 mb - 0.00 in0.0 mm 0.00 in0.0 mm
04:30 AM 58.7°F14.8°C 54.8°F12.7°C 87% Calm Calm -- 29.89 in1012.2 mb - 0.00 in0.0 mm 0.00 in0.0 mm
04:20 AM 58.5°F14.7°C 54.6°F12.6°C 87% Calm Calm -- 29.89 in1012.2 mb - 0.00 in0.0 mm 0.00 in0.0 mm
04:10 AM 58.7°F14.8°C 54.8°F12.7°C 87% Calm Calm -- 29.89 in1012.2 mb - 0.00 in0.0 mm 0.00 in0.0 mm
04:00 AM 58.3°F14.6°C 54.4°F12.4°C 87% Calm Calm -- 29.88 in1011.9 mb - 0.00 in0.0 mm 0.00 in0.0 mm
03:50 AM 58.5°F14.7°C 54.6°F12.6°C 87% Calm Calm -- 29.89 in1012.2 mb - 0.00 in0.0 mm 0.00 in0.0 mm
03:40 AM 58.7°F14.8°C 54.8°F12.7°C 87% Calm Calm -- 29.90 in1012.5 mb - 0.00 in0.0 mm 0.00 in0.0 mm
03:30 AM 58.8°F14.9°C 55.0°F12.8°C 87% Calm Calm -- 29.90 in1012.5 mb - 0.00 in0.0 mm 0.00 in0.0 mm
03:20 AM 58.6°F14.8°C 54.8°F12.7°C 87% Calm Calm -- 29.91 in1012.9 mb - 0.00 in0.0 mm 0.00 in0.0 mm
03:10 AM 58.2°F14.6°C 54.3°F12.4°C 87% Calm Calm -- 29.91 in1012.9 mb - 0.00 in0.0 mm 0.00 in0.0 mm
03:00 AM 57.8°F14.3°C 54.0°F12.2°C 87% Calm Calm -- 29.93 in1013.5 mb - 0.00 in0.0 mm 0.00 in0.0 mm
02:50 AM 57.6°F14.2°C 53.8°F12.1°C 87% Calm Calm -- 29.94 in1013.9 mb - 0.00 in0.0 mm 0.00 in0.0 mm
02:40 AM 57.5°F14.2°C 53.7°F12.1°C 87% Calm Calm -- 29.95 in1014.2 mb - 0.00 in0.0 mm 0.00 in0.0 mm
02:30 AM 57.6°F14.2°C 53.8°F12.1°C 87% Calm Calm -- 29.95 in1014.2 mb - 0.00 in0.0 mm 0.00 in0.0 mm
02:20 AM 57.7°F14.3°C 53.9°F12.2°C 87% Calm Calm -- 29.96 in1014.6 mb - 0.00 in0.0 mm 0.00 in0.0 mm
02:10 AM 58.0°F14.4°C 54.2°F12.3°C 87% Calm Calm -- 29.96 in1014.6 mb - 0.00 in0.0 mm 0.00 in0.0 mm
02:00 AM 58.3°F14.6°C 54.4°F12.4°C 87% Calm Calm -- 29.97 in1014.9 mb - 0.00 in0.0 mm 0.00 in0.0 mm
01:50 AM 58.4°F14.7°C 54.5°F12.5°C 87% Calm Calm -- 29.97 in1014.9 mb - 0.00 in0.0 mm 0.00 in0.0 mm
01:40 AM 58.6°F14.8°C 54.7°F12.6°C 87% Calm Calm -- 29.97 in1014.9 mb - 0.00 in0.0 mm 0.00 in0.0 mm
01:30 AM 58.7°F14.8°C 54.8°F12.7°C 87% Calm Calm -- 29.97 in1014.9 mb - 0.00 in0.0 mm 0.00 in0.0 mm
01:20 AM 58.7°F14.8°C 54.8°F12.7°C 87% Calm Calm -- 29.97 in1014.9 mb - 0.00 in0.0 mm 0.00 in0.0 mm
01:10 AM 58.9°F14.9°C 55.0°F12.8°C 87% Calm Calm -- 29.97 in1014.9 mb - 0.00 in0.0 mm 0.00 in0.0 mm
01:00 AM 59.2°F15.1°C 57.2°F14.0°C 93% Calm Calm -- 29.98 in1015.2 mb - 0.00 in0.0 mm 0.00 in0.0 mm
12:50 AM 59.6°F15.3°C 57.6°F14.2°C 93% Calm Calm -- 29.98 in1015.2 mb - 0.00 in0.0 mm 0.00 in0.0 mm
12:40 AM 59.7°F15.4°C 57.7°F14.3°C 93% Calm Calm -- 29.97 in1014.9 mb - 0.00 in0.0 mm 0.00 in0.0 mm
12:30 AM 59.8°F15.4°C 57.8°F14.3°C 93% Calm Calm -- 29.96 in1014.6 mb - 0.00 in0.0 mm 0.00 in0.0 mm
12:20 AM 60.0°F15.6°C 58.0°F14.4°C 93% Calm Calm -- 29.96 in1014.6 mb - 0.00 in0.0 mm 0.00 in0.0 mm
12:10 AM 60.2°F15.7°C 58.2°F14.6°C 93% Calm Calm -- 29.96 in1014.6 mb - 0.00 in0.0 mm 0.00 in0.0 mm
12:00 AM 60.4°F15.8°C 58.4°F14.7°C 93% Calm Calm -- 29.96 in1014.6 mb - 0.00 in0.0 mm 0.00 in0.0 mm